createdAt,value
2019-02-09T00:02:26.998Z,63.30
2019-02-09T00:05:35.099Z,63.60
2019-02-09T00:08:36.195Z,63.60
2019-02-09T00:11:37.332Z,63.80
2019-02-09T00:14:37.742Z,64.00
2019-02-09T00:17:38.094Z,64.00
2019-02-09T00:20:38.700Z,63.80
2019-02-09T00:23:39.073Z,63.60
2019-02-09T00:26:39.369Z,63.70
2019-02-09T00:29:46.179Z,63.50
2019-02-09T00:32:43.241Z,63.30
2019-02-09T00:35:44.042Z,63.30
2019-02-09T00:38:44.286Z,62.80
2019-02-09T00:41:44.697Z,62.70
2019-02-09T00:44:45.313Z,62.80
2019-02-09T00:47:46.346Z,62.60
2019-02-09T00:50:46.952Z,61.70
2019-02-09T00:53:48.196Z,61.30
2019-02-09T00:56:48.853Z,60.90
2019-02-09T00:59:54.129Z,60.60
2019-02-09T01:02:51.630Z,60.00
2019-02-09T01:05:52.539Z,59.50
2019-02-09T01:08:53.202Z,58.90
2019-02-09T01:11:54.174Z,59.10
2019-02-09T01:14:54.907Z,59.10
2019-02-09T01:17:55.554Z,59.50
2019-02-09T01:20:56.071Z,59.00
2019-02-09T01:23:57.226Z,58.30
2019-02-09T01:26:57.613Z,58.00
2019-02-09T01:30:02.365Z,57.80
2019-02-09T01:33:01.469Z,57.40
2019-02-09T01:36:02.011Z,57.60
2019-02-09T01:39:04.457Z,58.10
2019-02-09T01:42:04.766Z,58.50
2019-02-09T01:45:05.086Z,58.60
2019-02-09T01:48:06.058Z,58.70
2019-02-09T01:51:07.218Z,58.90
2019-02-09T01:54:08.294Z,58.90
2019-02-09T01:57:08.714Z,58.90
2019-02-09T02:00:10.845Z,59.00
2019-02-09T02:03:11.384Z,57.80
2019-02-09T02:06:11.848Z,58.10
2019-02-09T02:09:12.739Z,58.00
2019-02-09T02:12:13.059Z,57.20
2019-02-09T02:15:14.304Z,57.40
2019-02-09T02:18:15.406Z,56.40
2019-02-09T02:21:16.386Z,56.20
2019-02-09T02:24:16.944Z,56.90
2019-02-09T02:27:18.158Z,56.10
2019-02-09T02:30:22.332Z,54.90
2019-02-09T02:33:21.507Z,54.20
2019-02-09T02:36:22.808Z,54.20
2019-02-09T02:39:23.562Z,54.40
2019-02-09T02:42:23.806Z,53.90
2019-02-09T02:45:25.144Z,54.40
2019-02-09T02:48:25.802Z,55.20
2019-02-09T02:51:26.244Z,55.00
2019-02-09T02:54:26.941Z,54.90
2019-02-09T02:57:28.041Z,54.70
2019-02-09T03:00:32.085Z,54.30
2019-02-09T03:03:31.548Z,54.70
2019-02-09T03:06:32.152Z,54.70
2019-02-09T03:09:32.486Z,54.10
2019-02-09T03:12:32.823Z,53.80
2019-02-09T03:15:33.451Z,53.20
2019-02-09T03:18:34.393Z,52.60
2019-02-09T03:21:34.850Z,52.90
2019-02-09T03:24:35.310Z,53.30
2019-02-09T03:27:35.714Z,53.70
2019-02-09T03:30:46.415Z,54.10
2019-02-09T03:33:38.412Z,54.70
2019-02-09T03:36:39.136Z,55.40
2019-02-09T03:39:40.377Z,55.80
2019-02-09T03:42:41.196Z,57.30
2019-02-09T03:45:41.438Z,58.00
2019-02-09T03:48:42.110Z,59.70
2019-02-09T03:51:43.114Z,63.50
2019-02-09T03:54:43.775Z,70.40
2019-02-09T03:57:44.092Z,73.90
2019-02-09T04:00:44.453Z,75.60
2019-02-09T04:03:44.774Z,78.00
2019-02-09T04:06:45.385Z,80.10
2019-02-09T04:09:45.912Z,81.60
2019-02-09T04:12:46.851Z,85.60
2019-02-09T04:15:47.682Z,90.10
2019-02-09T04:18:48.384Z,91.90
2019-02-09T04:21:49.490Z,93.50
2019-02-09T04:24:49.792Z,95.80
2019-02-09T04:27:50.356Z,98.70
2019-02-09T04:30:50.656Z,99.90
2019-02-09T04:33:51.934Z,99.90
2019-02-09T04:36:53.170Z,99.90
2019-02-09T04:39:53.925Z,99.90
2019-02-09T04:42:54.309Z,99.90
2019-02-09T04:45:54.645Z,99.90
2019-02-09T04:48:55.106Z,99.90
2019-02-09T04:51:55.725Z,99.90
2019-02-09T04:54:56.360Z,99.90
2019-02-09T04:57:56.822Z,99.90
2019-02-09T05:00:57.258Z,99.90
2019-02-09T05:03:57.937Z,99.90
2019-02-09T05:06:58.703Z,99.90
2019-02-09T05:09:59.125Z,99.90
2019-02-09T05:12:59.530Z,99.90
2019-02-09T05:15:59.979Z,99.90
2019-02-09T05:19:00.411Z,99.90
2019-02-09T05:22:01.014Z,99.90
2019-02-09T05:25:01.813Z,99.90
2019-02-09T05:28:02.089Z,99.90
2019-02-09T05:31:03.302Z,99.90
2019-02-09T05:34:04.288Z,99.90
2019-02-09T05:37:04.594Z,99.90
2019-02-09T05:40:05.156Z,99.90
2019-02-09T05:43:05.910Z,99.90
2019-02-09T05:46:06.260Z,99.90
2019-02-09T05:49:06.872Z,99.90
2019-02-09T05:52:07.302Z,99.90
2019-02-09T05:55:07.795Z,99.90
2019-02-09T05:58:08.808Z,99.90
2019-02-09T06:01:09.612Z,99.90
2019-02-09T06:04:09.853Z,99.90
2019-02-09T06:07:10.728Z,99.90
2019-02-09T06:10:11.050Z,99.90
2019-02-09T06:13:11.362Z,99.90
2019-02-09T06:16:11.764Z,99.90
2019-02-09T06:19:12.425Z,99.90
2019-02-09T06:22:12.962Z,99.90
2019-02-09T06:25:13.412Z,99.90
2019-02-09T06:28:13.964Z,99.90
2019-02-09T06:31:14.280Z,99.90
2019-02-09T06:34:14.845Z,99.90
2019-02-09T06:37:15.156Z,99.90
2019-02-09T06:40:15.381Z,99.90
2019-02-09T06:43:16.153Z,99.90
2019-02-09T06:46:16.400Z,99.90
2019-02-09T06:49:17.245Z,99.90
2019-02-09T06:52:17.673Z,99.90
2019-02-09T06:55:18.837Z,99.90
2019-02-09T06:58:19.289Z,99.90
2019-02-09T07:01:20.108Z,99.90
2019-02-09T07:04:20.671Z,99.90
2019-02-09T07:07:21.196Z,99.90
2019-02-09T07:10:22.381Z,99.90
2019-02-09T07:13:22.749Z,99.90
2019-02-09T07:16:23.151Z,99.90
2019-02-09T07:19:23.891Z,99.90
2019-02-09T07:22:24.118Z,99.90
2019-02-09T07:25:25.547Z,99.90
2019-02-09T07:28:26.542Z,99.90
2019-02-09T07:31:26.805Z,99.90
2019-02-09T07:34:28.087Z,99.90
2019-02-09T07:37:28.996Z,99.90
2019-02-09T07:40:29.358Z,99.90
2019-02-09T07:43:30.004Z,99.90
2019-02-09T07:46:30.322Z,99.90
2019-02-09T07:49:31.675Z,99.90
2019-02-09T07:52:32.842Z,99.90
2019-02-09T07:55:33.186Z,99.90
2019-02-09T07:58:33.665Z,99.90
2019-02-09T08:01:34.264Z,99.90
2019-02-09T08:04:35.358Z,99.90
2019-02-09T08:07:36.145Z,99.90
2019-02-09T08:10:36.728Z,99.90
2019-02-09T08:13:37.199Z,99.90
2019-02-09T08:16:37.592Z,99.90
2019-02-09T08:19:38.486Z,99.90
2019-02-09T08:22:39.137Z,99.90
2019-02-09T08:25:40.327Z,99.90
2019-02-09T08:28:41.464Z,99.90
2019-02-09T08:31:41.816Z,99.90
2019-02-09T08:34:42.257Z,99.90
2019-02-09T08:37:42.805Z,99.90
2019-02-09T08:40:43.969Z,99.90
2019-02-09T08:43:44.283Z,99.90
2019-02-09T08:46:44.547Z,99.90
2019-02-09T08:49:44.846Z,99.90
2019-02-09T08:52:45.523Z,99.90
2019-02-09T08:55:46.041Z,99.90
2019-02-09T08:58:47.273Z,99.90
2019-02-09T09:01:47.900Z,99.90
2019-02-09T09:04:48.393Z,99.90
2019-02-09T09:07:48.793Z,99.90
2019-02-09T09:10:49.378Z,99.90
2019-02-09T09:13:50.062Z,99.90
2019-02-09T09:16:50.645Z,99.90
2019-02-09T09:19:51.128Z,99.90
2019-02-09T09:22:51.741Z,99.90
2019-02-09T09:25:52.017Z,99.90
2019-02-09T09:28:52.453Z,99.90
2019-02-09T09:31:53.922Z,99.90
2019-02-09T09:34:55.316Z,99.90
2019-02-09T09:37:56.741Z,99.90
2019-02-09T09:40:58.347Z,99.90
2019-02-09T09:43:59.282Z,99.90
2019-02-09T09:47:00.474Z,99.90
2019-02-09T09:50:01.297Z,99.90
2019-02-09T09:53:01.678Z,99.90
2019-02-09T09:56:02.101Z,99.90
2019-02-09T09:59:02.636Z,99.90
2019-02-09T10:02:02.898Z,99.90
2019-02-09T10:05:03.897Z,99.90
2019-02-09T10:08:04.982Z,99.90
2019-02-09T10:11:05.292Z,99.90
2019-02-09T10:14:08.933Z,99.90
2019-02-09T10:17:08.574Z,99.90
2019-02-09T10:20:09.576Z,99.90
2019-02-09T10:23:10.550Z,99.90
2019-02-09T10:26:12.854Z,99.90
2019-02-09T10:29:13.254Z,99.90
2019-02-09T10:32:13.883Z,99.90
2019-02-09T10:35:15.138Z,99.90
2019-02-09T10:38:15.625Z,99.90
2019-02-09T10:41:16.085Z,99.90
2019-02-09T10:44:17.423Z,99.90
2019-02-09T10:47:19.163Z,99.90
2019-02-09T10:50:19.759Z,99.90
2019-02-09T10:53:20.583Z,99.90
2019-02-09T10:56:21.369Z,99.90
2019-02-09T10:59:22.054Z,99.90
2019-02-09T11:02:22.449Z,99.90
2019-02-09T11:05:22.851Z,99.90
2019-02-09T11:08:23.258Z,99.90
2019-02-09T11:11:23.838Z,99.90
2019-02-09T11:14:24.901Z,99.90
2019-02-09T11:17:26.496Z,99.90
2019-02-09T11:20:35.080Z,99.90
2019-02-09T11:23:36.337Z,99.90
2019-02-09T11:26:37.902Z,99.30
2019-02-09T11:29:39.542Z,99.50
2019-02-09T11:32:41.293Z,95.80
2019-02-09T11:35:42.490Z,93.10
2019-02-09T11:38:44.184Z,90.60
2019-02-09T11:41:45.843Z,85.40
2019-02-09T11:44:48.157Z,84.60
2019-02-09T11:47:49.631Z,77.30
2019-02-09T11:50:38.421Z,64.90
2019-02-09T11:53:39.697Z,62.20
2019-02-09T11:56:40.144Z,63.30
2019-02-09T11:59:40.785Z,69.20
2019-02-09T12:02:41.705Z,71.00
2019-02-09T12:05:42.412Z,71.60
2019-02-09T12:08:43.115Z,76.40
2019-02-09T12:11:43.765Z,75.50
2019-02-09T12:14:44.588Z,73.50
2019-02-09T12:17:45.233Z,72.20
2019-02-09T12:20:46.079Z,68.00
2019-02-09T12:23:46.818Z,70.70
2019-02-09T12:26:47.246Z,70.90
2019-02-09T12:29:48.268Z,70.30
2019-02-09T12:32:49.337Z,72.30
2019-02-09T12:35:50.330Z,73.70
2019-02-09T12:38:51.446Z,76.60
2019-02-09T12:41:51.998Z,79.00
2019-02-09T12:44:53.397Z,78.50
2019-02-09T12:47:54.639Z,80.40
2019-02-09T12:50:55.439Z,78.00
2019-02-09T12:53:56.283Z,78.90
2019-02-09T12:56:57.332Z,78.50
2019-02-09T12:59:58.236Z,78.60
2019-02-09T13:02:58.884Z,71.60
2019-02-09T13:06:00.467Z,68.40
2019-02-09T13:09:01.577Z,67.30
2019-02-09T13:12:02.987Z,66.00
2019-02-09T13:15:04.082Z,65.60
2019-02-09T13:18:05.001Z,66.70
2019-02-09T13:21:05.853Z,67.60
2019-02-09T13:24:07.206Z,66.00
2019-02-09T13:27:07.894Z,65.30
2019-02-09T13:30:08.576Z,65.90
2019-02-09T13:33:09.437Z,65.90
2019-02-09T13:36:10.323Z,65.60
2019-02-09T13:39:10.986Z,64.80
2019-02-09T13:42:12.237Z,63.80
2019-02-09T13:45:13.516Z,63.80
2019-02-09T13:48:15.025Z,64.50
2019-02-09T13:53:58.794Z,61.40
2019-02-09T13:56:59.754Z,62.60
2019-02-09T14:00:00.645Z,63.40
2019-02-09T14:03:01.572Z,66.90
2019-02-09T14:06:08.039Z,67.40
2019-02-09T14:09:06.036Z,74.70
2019-02-09T14:12:06.888Z,77.10
2019-02-09T14:15:08.183Z,81.50
2019-02-09T14:18:08.916Z,81.80
2019-02-09T14:21:09.820Z,85.10
2019-02-09T14:24:10.822Z,84.80
2019-02-09T14:27:11.426Z,82.90
2019-02-09T14:30:12.178Z,81.80
2019-02-09T14:33:13.010Z,81.90
2019-02-09T14:36:14.688Z,81.70
2019-02-09T14:39:16.090Z,84.10
2019-02-09T14:42:17.074Z,82.40
2019-02-09T14:45:18.372Z,80.40
2019-02-09T14:48:19.856Z,78.10
2019-02-09T14:51:20.726Z,77.20
2019-02-09T14:54:21.953Z,77.00
2019-02-09T14:57:22.749Z,77.80
2019-02-09T15:00:23.688Z,75.40
2019-02-09T15:03:28.134Z,76.90
2019-02-09T15:06:27.536Z,75.40
2019-02-09T15:09:28.255Z,76.10
2019-02-09T15:12:29.212Z,76.20
2019-02-09T15:15:30.069Z,76.60
2019-02-09T15:18:30.773Z,77.40
2019-02-09T15:21:31.797Z,77.20
2019-02-09T15:24:33.216Z,76.80
2019-02-09T15:27:34.374Z,76.10
2019-02-09T15:30:34.857Z,75.90
2019-02-09T15:33:35.542Z,79.20
2019-02-09T15:36:36.425Z,81.40
2019-02-09T15:39:37.017Z,82.50
2019-02-09T15:42:37.451Z,83.50
2019-02-09T15:45:38.062Z,84.90
2019-02-09T15:48:38.662Z,84.90
2019-02-09T15:51:39.261Z,84.60
2019-02-09T15:54:39.710Z,85.20
2019-02-09T15:57:40.873Z,84.60
2019-02-09T16:00:42.037Z,84.90
2019-02-09T16:03:42.645Z,85.40
2019-02-09T16:06:43.525Z,86.10
2019-02-09T16:09:44.010Z,87.10
2019-02-09T16:12:44.486Z,86.10
2019-02-09T16:15:44.888Z,86.10
2019-02-09T16:18:45.490Z,85.80
2019-02-09T16:21:34.243Z,86.00
2019-02-09T16:24:42.128Z,86.30
2019-02-09T16:27:43.352Z,86.70
2019-02-09T16:30:43.848Z,86.70
2019-02-09T16:33:44.417Z,87.40
2019-02-09T16:36:45.106Z,88.10
2019-02-09T16:39:45.837Z,88.70
2019-02-09T16:42:47.071Z,89.50
2019-02-09T16:45:54.955Z,89.70
2019-02-09T16:49:02.846Z,90.00
2019-02-09T16:52:03.694Z,90.30
2019-02-09T16:55:05.031Z,90.60
2019-02-09T16:58:05.459Z,90.70
2019-02-09T17:01:06.128Z,90.90
2019-02-09T17:04:06.653Z,91.00
2019-02-09T17:07:07.654Z,91.10
2019-02-09T17:10:08.089Z,91.20
2019-02-09T17:13:08.376Z,91.50
2019-02-09T17:16:08.756Z,91.10
2019-02-09T17:19:09.502Z,91.30
2019-02-09T17:22:12.022Z,91.30
2019-02-09T17:25:12.659Z,91.70
2019-02-09T17:28:13.163Z,91.30
2019-02-09T17:31:13.885Z,91.20
2019-02-09T17:34:14.404Z,91.20
2019-02-09T17:37:14.921Z,91.30
2019-02-09T17:40:16.064Z,91.50
2019-02-09T17:43:16.646Z,91.70
2019-02-09T17:46:17.036Z,91.80
2019-02-09T17:49:18.266Z,92.10
2019-02-09T17:52:18.516Z,92.00
2019-02-09T17:55:18.975Z,92.10
2019-02-09T17:58:19.669Z,92.40
2019-02-09T18:01:20.258Z,92.50
2019-02-09T18:04:20.702Z,92.90
2019-02-09T18:07:21.445Z,93.40
2019-02-09T18:10:21.861Z,93.80
2019-02-09T18:13:22.546Z,93.80
2019-02-09T18:16:23.055Z,93.90
2019-02-09T18:19:23.564Z,94.30
2019-02-09T18:22:24.283Z,94.50
2019-02-09T18:25:26.236Z,95.10
2019-02-09T18:28:27.147Z,95.60
2019-02-09T18:31:27.695Z,95.60
2019-02-09T18:34:28.583Z,96.10
2019-02-09T18:37:29.163Z,96.10
2019-02-09T18:40:29.454Z,96.40
2019-02-09T18:43:30.071Z,96.60
2019-02-09T18:46:30.619Z,96.70
2019-02-09T18:49:31.696Z,96.70
2019-02-09T18:52:32.418Z,96.90
2019-02-09T18:55:33.366Z,97.00
2019-02-09T18:58:34.142Z,97.10
2019-02-09T19:01:34.962Z,97.60
2019-02-09T19:04:35.975Z,97.70
2019-02-09T19:07:37.006Z,97.80
2019-02-09T19:10:37.479Z,98.00
2019-02-09T19:13:38.198Z,98.20
2019-02-09T19:16:38.581Z,98.40
2019-02-09T19:19:39.274Z,98.70
2019-02-09T19:22:39.856Z,98.80
2019-02-09T19:25:40.631Z,99.20
2019-02-09T19:28:41.242Z,99.60
2019-02-09T19:31:42.343Z,99.80
2019-02-09T19:34:43.598Z,99.90
2019-02-09T19:37:44.608Z,99.90
2019-02-09T19:40:45.193Z,99.90
2019-02-09T19:43:45.831Z,99.90
2019-02-09T19:46:46.265Z,99.90
2019-02-09T19:49:46.626Z,99.90
2019-02-09T19:52:47.406Z,99.90
2019-02-09T19:55:47.837Z,99.90
2019-02-09T19:58:48.758Z,99.90
2019-02-09T20:01:49.566Z,99.90
2019-02-09T20:04:50.381Z,99.90
2019-02-09T20:07:50.974Z,99.90
2019-02-09T20:10:51.844Z,99.90
2019-02-09T20:13:52.423Z,99.90
2019-02-09T20:16:53.033Z,99.90
2019-02-09T20:19:53.882Z,99.90
2019-02-09T20:22:54.826Z,99.90
2019-02-09T20:25:55.390Z,99.90
2019-02-09T20:28:56.060Z,99.90
2019-02-09T20:31:56.617Z,99.90
2019-02-09T20:34:57.505Z,99.90
2019-02-09T20:37:58.730Z,99.90
2019-02-09T20:40:59.044Z,99.90
2019-02-09T20:43:59.454Z,99.90
2019-02-09T20:46:59.846Z,99.90
2019-02-09T20:50:00.358Z,99.90
2019-02-09T20:53:00.843Z,99.90
2019-02-09T20:56:01.160Z,99.90
2019-02-09T20:59:01.689Z,99.90
2019-02-09T21:02:02.046Z,99.90
2019-02-09T21:05:02.356Z,99.90
2019-02-09T21:08:02.888Z,99.90
2019-02-09T21:10:51.514Z,99.90
2019-02-09T21:17:20.443Z,99.90
2019-02-09T21:20:21.162Z,99.90
2019-02-09T21:23:21.911Z,99.90
2019-02-09T21:26:22.450Z,99.90
2019-02-09T21:29:23.585Z,99.90
2019-02-09T21:32:24.100Z,99.90
2019-02-09T21:35:24.391Z,99.90
2019-02-09T21:38:24.698Z,99.90
2019-02-09T21:41:25.181Z,99.90
2019-02-09T21:44:25.788Z,99.90
2019-02-09T21:47:26.786Z,99.90
2019-02-09T21:50:27.139Z,99.90
2019-02-09T21:53:27.579Z,99.90
2019-02-09T21:56:28.034Z,99.90
2019-02-09T21:59:28.330Z,99.90
2019-02-09T22:02:29.128Z,99.90
2019-02-09T22:05:29.645Z,99.90
2019-02-09T22:08:31.556Z,99.90
2019-02-09T22:11:32.187Z,99.90
2019-02-09T22:14:33.569Z,99.90
2019-02-09T22:17:33.979Z,99.90
2019-02-09T22:20:34.429Z,99.90
2019-02-09T22:23:34.835Z,99.90
2019-02-09T22:26:36.053Z,99.90
2019-02-09T22:29:36.422Z,99.90
2019-02-09T22:32:37.058Z,99.90
2019-02-09T22:35:37.494Z,99.90
2019-02-09T22:38:38.253Z,99.90
2019-02-09T22:41:39.114Z,99.90
2019-02-09T22:44:39.413Z,99.90
2019-02-09T22:47:40.530Z,99.90
2019-02-09T22:50:40.997Z,99.90
2019-02-09T22:53:41.609Z,99.90
2019-02-09T22:56:42.217Z,99.90
2019-02-09T22:59:42.710Z,99.90
2019-02-09T23:02:43.499Z,99.90
2019-02-09T23:05:44.141Z,99.90
2019-02-09T23:08:44.897Z,99.90
2019-02-09T23:11:45.525Z,99.90
2019-02-09T23:14:45.817Z,99.90
2019-02-09T23:17:46.429Z,99.90
2019-02-09T23:20:47.090Z,99.90
2019-02-09T23:23:47.826Z,99.90
2019-02-09T23:26:48.419Z,99.90
2019-02-09T23:29:49.164Z,99.90
2019-02-09T23:32:49.873Z,99.90
2019-02-09T23:35:50.528Z,99.90
2019-02-09T23:38:51.117Z,99.90
2019-02-09T23:41:51.794Z,99.90
2019-02-09T23:44:52.316Z,99.90
2019-02-09T23:47:53.132Z,99.90
2019-02-09T23:50:53.656Z,99.90
2019-02-09T23:53:54.422Z,99.90
2019-02-09T23:56:54.842Z,99.90
2019-02-09T23:59:55.373Z,99.90
